createdAt,value
2017-02-16T00:00:45.493Z,10.92
2017-02-16T00:01:45.428Z,10.82
2017-02-16T00:02:45.366Z,10.92
2017-02-16T00:03:45.305Z,10.82
2017-02-16T00:04:45.239Z,10.82
2017-02-16T00:05:45.197Z,10.92
2017-02-16T00:06:45.114Z,10.82
2017-02-16T00:07:45.091Z,10.82
2017-02-16T00:08:44.997Z,10.72
2017-02-16T00:09:44.545Z,10.82
2017-02-16T00:10:44.867Z,10.82
2017-02-16T00:11:44.799Z,10.92
2017-02-16T00:12:44.740Z,10.82
2017-02-16T00:13:44.674Z,10.82
2017-02-16T00:14:44.623Z,10.82
2017-02-16T00:15:44.549Z,10.82
2017-02-16T00:16:44.491Z,10.82
2017-02-16T00:17:44.427Z,10.92
2017-02-16T00:18:44.361Z,10.82
2017-02-16T00:19:44.306Z,10.82
2017-02-16T00:20:44.234Z,10.72
2017-02-16T00:21:44.181Z,10.82
2017-02-16T00:22:44.109Z,11.3
2017-02-16T00:23:44.046Z,10.92
2017-02-16T00:24:43.982Z,10.72
2017-02-16T00:25:43.924Z,10.92
2017-02-16T00:26:43.857Z,10.72
2017-02-16T00:27:43.807Z,10.72
2017-02-16T00:28:43.737Z,11.11
2017-02-16T00:29:43.669Z,10.72
2017-02-16T00:30:43.620Z,10.72
2017-02-16T00:31:43.559Z,11.11
2017-02-16T00:32:43.486Z,11.4
2017-02-16T00:33:43.421Z,11.21
2017-02-16T00:34:43.356Z,11.02
2017-02-16T00:35:43.292Z,11.11
2017-02-16T00:36:43.239Z,11.21
2017-02-16T00:37:43.167Z,11.3
2017-02-16T00:38:43.109Z,10.82
2017-02-16T00:39:43.042Z,11.3
2017-02-16T00:40:42.992Z,11.11
2017-02-16T00:41:42.914Z,10.72
2017-02-16T00:42:42.854Z,11.11
2017-02-16T00:43:42.789Z,11.11
2017-02-16T00:44:42.740Z,11.11
2017-02-16T00:45:42.678Z,11.11
2017-02-16T00:46:42.614Z,11.11
2017-02-16T00:47:42.539Z,11.21
2017-02-16T00:48:42.491Z,11.21
2017-02-16T00:49:42.429Z,11.11
2017-02-16T00:50:42.363Z,11.3
2017-02-16T00:51:42.290Z,11.02
2017-02-16T00:52:42.225Z,11.21
2017-02-16T00:53:42.168Z,11.21
2017-02-16T00:54:42.097Z,11.11
2017-02-16T00:55:42.042Z,11.11
2017-02-16T00:56:41.973Z,11.11
2017-02-16T00:57:41.909Z,11.02
2017-02-16T00:58:41.848Z,10.92
2017-02-16T00:59:41.793Z,11.21
2017-02-16T01:01:13.320Z,10.72
2017-02-16T01:02:13.244Z,11.11
2017-02-16T01:03:13.189Z,11.11
2017-02-16T01:04:13.131Z,11.02
2017-02-16T01:05:13.057Z,11.3
2017-02-16T01:06:13.394Z,11.11
2017-02-16T01:07:12.944Z,11.21
2017-02-16T01:08:12.866Z,11.21
2017-02-16T01:09:12.823Z,11.21
2017-02-16T01:10:12.745Z,11.3
2017-02-16T01:11:12.680Z,11.3
2017-02-16T01:12:12.616Z,11.21
2017-02-16T01:13:12.551Z,11.21
2017-02-16T01:14:12.507Z,11.5
2017-02-16T01:15:12.453Z,11.5
2017-02-16T01:16:12.362Z,11.11
2017-02-16T01:17:12.308Z,11.21
2017-02-16T01:18:12.238Z,11.21
2017-02-16T01:19:12.173Z,11.21
2017-02-16T01:20:12.127Z,11.3
2017-02-16T01:21:12.061Z,11.02
2017-02-16T01:22:11.611Z,11.11
2017-02-16T01:23:11.924Z,11.21
2017-02-16T01:24:11.863Z,11.3
2017-02-16T01:25:11.799Z,11.3
2017-02-16T01:26:11.732Z,11.5
2017-02-16T01:27:11.673Z,11.11
2017-02-16T01:28:11.613Z,11.21
2017-02-16T01:29:11.544Z,11.21
2017-02-16T01:30:11.495Z,11.3
2017-02-16T01:31:11.436Z,11.21
2017-02-16T01:32:11.607Z,11.3
2017-02-16T01:33:11.298Z,11.6
2017-02-16T01:34:11.230Z,11.21
2017-02-16T01:35:11.168Z,11.21
2017-02-16T01:36:11.112Z,11.11
2017-02-16T01:37:11.044Z,11.3
2017-02-16T01:38:10.983Z,11.11
2017-02-16T01:39:10.916Z,11.11
2017-02-16T01:40:10.862Z,11.11
2017-02-16T01:41:10.788Z,11.21
2017-02-16T01:42:10.342Z,11.3
2017-02-16T01:43:10.673Z,11.21
2017-02-16T01:44:10.227Z,11.21
2017-02-16T01:45:10.538Z,11.11
2017-02-16T01:46:10.091Z,11.21
2017-02-16T01:47:10.040Z,11.11
2017-02-16T01:48:10.348Z,11.11
2017-02-16T01:49:10.286Z,11.21
2017-02-16T01:50:09.838Z,11.21
2017-02-16T01:51:10.162Z,11.21
2017-02-16T01:52:10.096Z,11.11
2017-02-16T01:53:10.033Z,11.11
2017-02-16T01:54:09.588Z,11.4
2017-02-16T01:55:09.524Z,11.11
2017-02-16T01:56:09.845Z,11.5
2017-02-16T01:57:09.782Z,11.11
2017-02-16T01:58:09.720Z,11.21
2017-02-16T01:59:09.658Z,11.21
2017-02-16T02:00:09.595Z,11.11
2017-02-16T02:01:09.543Z,11.11
2017-02-16T02:02:09.467Z,11.02
2017-02-16T02:03:09.407Z,11.5
2017-02-16T02:04:09.348Z,11.3
2017-02-16T02:05:09.580Z,11.21
2017-02-16T02:06:09.220Z,11.11
2017-02-16T02:07:09.151Z,11.4
2017-02-16T02:08:09.090Z,11.21
2017-02-16T02:09:09.068Z,11.11
2017-02-16T02:10:09.211Z,11.21
2017-02-16T02:11:08.916Z,11.11
2017-02-16T02:12:08.850Z,11.21
2017-02-16T02:13:08.784Z,11.11
2017-02-16T02:14:08.721Z,11.02
2017-02-16T02:15:08.647Z,11.21
2017-02-16T02:16:08.585Z,11.11
2017-02-16T02:17:08.521Z,11.21
2017-02-16T02:18:08.467Z,11.11
2017-02-16T02:19:08.401Z,11.21
2017-02-16T02:20:08.332Z,11.11
2017-02-16T02:21:08.269Z,11.21
2017-02-16T02:22:08.206Z,11.11
2017-02-16T02:23:08.145Z,11.21
2017-02-16T02:24:08.087Z,11.11
2017-02-16T02:25:08.017Z,11.21
2017-02-16T02:26:07.956Z,10.92
2017-02-16T02:27:07.890Z,11.21
2017-02-16T02:28:07.828Z,11.3
2017-02-16T02:29:07.777Z,11.11
2017-02-16T02:30:07.715Z,11.21
2017-02-16T02:31:07.650Z,11.11
2017-02-16T02:32:07.576Z,11.5
2017-02-16T02:33:07.534Z,11.11
2017-02-16T02:34:07.452Z,11.11
2017-02-16T02:35:07.390Z,11.11
2017-02-16T02:36:07.337Z,11.4
2017-02-16T02:37:07.263Z,11.21
2017-02-16T02:38:07.200Z,11.02
2017-02-16T02:39:07.142Z,11.11
2017-02-16T02:40:07.082Z,11.02
2017-02-16T02:41:07.014Z,11.02
2017-02-16T02:42:06.960Z,11.21
2017-02-16T02:43:06.885Z,11.3
2017-02-16T02:44:06.822Z,11.21
2017-02-16T02:45:06.759Z,11.21
2017-02-16T02:46:06.697Z,11.3
2017-02-16T02:47:06.633Z,11.3
2017-02-16T02:48:06.581Z,11.11
2017-02-16T02:49:06.508Z,11.3
2017-02-16T02:50:06.443Z,11.21
2017-02-16T02:51:06.379Z,11.21
2017-02-16T02:52:06.318Z,11.21
2017-02-16T02:53:06.260Z,11.21
2017-02-16T02:54:06.193Z,11.21
2017-02-16T02:55:05.744Z,11.21
2017-02-16T02:56:06.067Z,11.3
2017-02-16T02:57:05.618Z,11.21
2017-02-16T02:58:05.938Z,11.21
2017-02-16T02:59:05.876Z,11.21
2017-02-16T03:00:05.440Z,11.21
2017-02-16T03:01:05.751Z,11.11
2017-02-16T03:02:05.691Z,11.21
2017-02-16T03:03:05.628Z,11.21
2017-02-16T03:04:05.562Z,11.02
2017-02-16T03:05:05.498Z,11.02
2017-02-16T03:06:05.067Z,11.11
2017-02-16T03:07:05.370Z,11.3
2017-02-16T03:08:05.310Z,11.11
2017-02-16T03:09:05.247Z,11.02
2017-02-16T03:10:05.187Z,11.11
2017-02-16T03:11:05.125Z,11.3
2017-02-16T03:12:05.059Z,11.21
2017-02-16T03:13:04.996Z,11.11
2017-02-16T03:14:04.937Z,11.3
2017-02-16T03:15:04.873Z,11.21
2017-02-16T03:16:04.808Z,11.11
2017-02-16T03:17:04.741Z,11.11
2017-02-16T03:18:04.681Z,11.21
2017-02-16T03:19:04.618Z,11.11
2017-02-16T03:20:04.563Z,11.21
2017-02-16T03:21:04.491Z,11.11
2017-02-16T03:22:04.429Z,11.21
2017-02-16T03:23:04.365Z,11.11
2017-02-16T03:24:04.300Z,11.3
2017-02-16T03:25:03.867Z,11.11
2017-02-16T03:26:04.176Z,11.21
2017-02-16T03:27:04.111Z,11.3
2017-02-16T03:28:04.055Z,11.11
2017-02-16T03:29:03.985Z,11.4
2017-02-16T03:30:03.963Z,11.21
2017-02-16T03:31:03.858Z,11.3
2017-02-16T03:32:03.803Z,11.21
2017-02-16T03:33:03.737Z,10.92
2017-02-16T03:34:03.679Z,11.11
2017-02-16T03:35:03.621Z,11.11
2017-02-16T03:36:03.553Z,11.21
2017-02-16T03:37:03.479Z,11.21
2017-02-16T03:38:03.446Z,11.11
2017-02-16T03:39:03.353Z,11.3
2017-02-16T03:40:03.293Z,11.11
2017-02-16T03:41:03.228Z,11.21
2017-02-16T03:42:03.165Z,11.11
2017-02-16T03:43:03.104Z,11.11
2017-02-16T03:44:03.043Z,11.21
2017-02-16T03:45:02.980Z,11.21
2017-02-16T03:46:02.927Z,10.83
2017-02-16T03:47:02.853Z,10.92
2017-02-16T03:48:02.798Z,10.93
2017-02-16T03:49:02.725Z,10.83
2017-02-16T03:50:02.662Z,10.73
2017-02-16T03:51:02.607Z,10.93
2017-02-16T03:52:02.536Z,10.83
2017-02-16T03:53:02.492Z,11.02
2017-02-16T03:54:02.421Z,11.12
2017-02-16T03:55:02.354Z,11.02
2017-02-16T03:56:02.284Z,11.02
2017-02-16T03:57:02.243Z,11.02
2017-02-16T03:58:02.160Z,11.02
2017-02-16T03:59:02.104Z,11.12
2017-02-16T04:00:02.036Z,11.02
2017-02-16T04:01:01.972Z,11.02
2017-02-16T04:02:01.910Z,11.02
2017-02-16T04:03:01.852Z,11.12
2017-02-16T04:04:01.788Z,11.12
2017-02-16T04:05:01.737Z,11.12
2017-02-16T04:06:01.660Z,11.12
2017-02-16T04:07:01.596Z,11.12
2017-02-16T04:08:01.534Z,10.93
2017-02-16T04:09:01.494Z,11.12
2017-02-16T04:10:01.409Z,11.12
2017-02-16T04:11:01.356Z,11.02
2017-02-16T04:12:01.287Z,10.93
2017-02-16T04:13:01.225Z,10.93
2017-02-16T04:14:01.178Z,11.12
2017-02-16T04:15:01.103Z,11.12
2017-02-16T04:16:01.036Z,10.73
2017-02-16T04:17:00.975Z,10.93
2017-02-16T04:18:00.913Z,10.83
2017-02-16T04:19:00.861Z,10.93
2017-02-16T04:20:00.797Z,10.93
2017-02-16T04:21:00.722Z,10.83
2017-02-16T04:22:00.660Z,11.02
2017-02-16T04:23:00.595Z,10.83
2017-02-16T04:24:00.546Z,10.83
2017-02-16T04:25:00.482Z,10.93
2017-02-16T04:26:00.410Z,10.93
2017-02-16T04:27:00.348Z,11.12
2017-02-16T04:28:00.287Z,11.02
2017-02-16T04:29:00.231Z,11.12
2017-02-16T04:30:00.161Z,10.93
2017-02-16T04:30:59.712Z,10.73
2017-02-16T04:32:00.035Z,10.93
2017-02-16T04:32:59.996Z,10.93
2017-02-16T04:33:59.908Z,10.83
2017-02-16T04:34:59.847Z,11.21
2017-02-16T04:35:59.784Z,10.83
2017-02-16T04:36:59.723Z,10.83
2017-02-16T04:37:59.674Z,10.73
2017-02-16T04:38:59.613Z,10.83
2017-02-16T04:39:59.540Z,10.83
2017-02-16T04:40:59.471Z,11.21
2017-02-16T04:41:59.418Z,10.73
2017-02-16T04:42:59.345Z,10.73
2017-02-16T04:43:59.284Z,11.31
2017-02-16T04:44:59.224Z,11.31
2017-02-16T04:45:59.165Z,11.31
2017-02-16T04:46:59.096Z,10.73
2017-02-16T04:47:59.036Z,11.21
2017-02-16T04:48:58.988Z,10.83
2017-02-16T04:49:58.908Z,11.41
2017-02-16T04:50:58.853Z,11.3
2017-02-16T04:51:58.790Z,11.02
2017-02-16T04:52:58.735Z,11.12
2017-02-16T04:53:58.659Z,10.83
2017-02-16T04:54:58.603Z,10.73
2017-02-16T04:55:58.537Z,10.73
2017-02-16T04:56:58.474Z,10.83
2017-02-16T04:57:58.416Z,11.31
2017-02-16T04:58:58.355Z,10.83
2017-02-16T04:59:58.323Z,10.73
2017-02-16T05:00:58.222Z,10.73
2017-02-16T05:01:58.164Z,11.12
2017-02-16T05:02:58.097Z,10.73
2017-02-16T05:03:58.046Z,11.31
2017-02-16T05:04:58.002Z,11.21
2017-02-16T05:05:57.913Z,10.83
2017-02-16T05:06:57.867Z,10.83
2017-02-16T05:07:57.792Z,11.02
2017-02-16T05:08:57.720Z,11.02
2017-02-16T05:09:57.669Z,11.12
2017-02-16T05:10:57.598Z,10.83
2017-02-16T05:11:57.546Z,10.93
2017-02-16T05:12:57.473Z,10.82
2017-02-16T05:13:57.407Z,10.93
2017-02-16T05:14:56.961Z,11.02
2017-02-16T05:15:57.283Z,11.02
2017-02-16T05:16:57.220Z,11.02
2017-02-16T05:17:57.166Z,11.12
2017-02-16T05:18:57.118Z,11.12
2017-02-16T05:19:57.032Z,11.12
2017-02-16T05:20:56.970Z,11.02
2017-02-16T05:21:56.917Z,11.02
2017-02-16T05:22:56.850Z,11.02
2017-02-16T05:23:56.782Z,10.83
2017-02-16T05:24:56.717Z,10.73
2017-02-16T05:25:56.671Z,10.83
2017-02-16T05:26:56.594Z,10.72
2017-02-16T05:27:56.530Z,10.83
2017-02-16T05:28:56.467Z,10.93
2017-02-16T05:29:56.407Z,10.83
2017-02-16T05:30:56.341Z,10.93
2017-02-16T05:31:56.289Z,10.83
2017-02-16T05:32:56.217Z,10.83
2017-02-16T05:33:56.198Z,10.93
2017-02-16T05:34:56.095Z,10.83
2017-02-16T05:35:56.030Z,10.82
2017-02-16T05:36:55.972Z,10.93
2017-02-16T05:37:55.915Z,10.83
2017-02-16T05:38:55.841Z,10.93
2017-02-16T05:39:55.789Z,10.83
2017-02-16T05:40:55.717Z,10.63
2017-02-16T05:41:55.652Z,10.63
2017-02-16T05:42:55.616Z,10.93
2017-02-16T05:43:55.527Z,10.83
2017-02-16T05:44:55.465Z,10.63
2017-02-16T05:45:55.410Z,10.92
2017-02-16T05:46:55.362Z,10.93
2017-02-16T05:47:55.277Z,10.93
2017-02-16T05:48:55.213Z,10.73
2017-02-16T05:49:54.792Z,10.73
2017-02-16T05:50:55.090Z,10.63
2017-02-16T05:51:55.027Z,10.44
2017-02-16T05:52:54.975Z,10.83
2017-02-16T05:53:54.903Z,10.35
2017-02-16T05:54:54.850Z,10.83
2017-02-16T05:55:54.778Z,10.83
2017-02-16T05:56:54.744Z,10.73
2017-02-16T05:57:54.650Z,10.83
2017-02-16T05:58:54.587Z,10.35
2017-02-16T05:59:54.526Z,10.83
2017-02-16T06:00:54.460Z,10.83
2017-02-16T06:01:54.406Z,10.72
2017-02-16T06:02:54.349Z,10.83
2017-02-16T06:03:54.272Z,10.34
2017-02-16T06:04:54.219Z,10.72
2017-02-16T06:05:54.147Z,10.44
2017-02-16T06:06:54.105Z,10.53
2017-02-16T06:07:54.023Z,10.53
2017-02-16T06:08:53.966Z,10.44
2017-02-16T06:09:53.898Z,10.35
2017-02-16T06:10:53.833Z,10.44
2017-02-16T06:11:53.800Z,10.44
2017-02-16T06:12:53.712Z,10.25
2017-02-16T06:13:53.645Z,10.73
2017-02-16T06:14:53.580Z,10.34
2017-02-16T06:15:53.524Z,10.73
2017-02-16T06:16:53.478Z,10.35
2017-02-16T06:17:53.394Z,10.34
2017-02-16T06:18:53.331Z,10.35
2017-02-16T06:19:53.281Z,10.34
2017-02-16T06:20:53.218Z,10.44
2017-02-16T06:21:53.143Z,10.72
2017-02-16T06:22:53.079Z,10.44
2017-02-16T06:23:53.017Z,10.72
2017-02-16T06:24:52.956Z,10.34
2017-02-16T06:25:52.904Z,10.82
2017-02-16T06:26:52.827Z,10.83
2017-02-16T06:27:52.767Z,10.72
2017-02-16T06:28:52.711Z,10.82
2017-02-16T06:29:52.651Z,10.72
2017-02-16T06:30:52.606Z,10.82
2017-02-16T06:31:52.517Z,10.82
2017-02-16T06:32:52.451Z,10.44
2017-02-16T06:33:52.388Z,10.63
2017-02-16T06:34:52.326Z,10.82
2017-02-16T06:35:52.565Z,10.63
2017-02-16T06:36:52.198Z,10.72
2017-02-16T06:37:52.134Z,10.63
2017-02-16T06:38:52.073Z,10.82
2017-02-16T06:39:52.009Z,10.63
2017-02-16T06:40:52.233Z,10.34
2017-02-16T06:41:51.889Z,10.82
2017-02-16T06:42:51.822Z,10.72
2017-02-16T06:43:51.759Z,10.82
2017-02-16T06:44:51.701Z,10.35
2017-02-16T06:45:51.641Z,10.34
2017-02-16T06:46:51.570Z,10.72
2017-02-16T06:47:51.507Z,10.63
2017-02-16T06:48:51.449Z,10.63
2017-02-16T06:49:51.382Z,10.82
2017-02-16T06:50:51.317Z,10.82
2017-02-16T06:51:51.254Z,10.72
2017-02-16T06:52:51.191Z,10.82
2017-02-16T06:53:51.154Z,10.63
2017-02-16T06:54:51.066Z,10.63
2017-02-16T06:55:51.007Z,10.63
2017-02-16T06:56:50.953Z,10.63
2017-02-16T06:57:50.879Z,10.82
2017-02-16T06:58:50.820Z,10.92
2017-02-16T06:59:50.753Z,10.92
2017-02-16T07:00:50.690Z,10.82
2017-02-16T07:01:50.626Z,11.11
2017-02-16T07:02:50.563Z,10.82
2017-02-16T07:03:50.499Z,10.92
2017-02-16T07:04:50.438Z,10.92
2017-02-16T07:05:50.385Z,10.92
2017-02-16T07:06:50.310Z,10.92
2017-02-16T07:07:50.253Z,11.02
2017-02-16T07:08:50.183Z,10.92
2017-02-16T07:09:50.124Z,10.82
2017-02-16T07:10:50.060Z,10.92
2017-02-16T07:11:49.997Z,10.82
2017-02-16T07:12:49.934Z,10.72
2017-02-16T07:13:49.876Z,10.82
2017-02-16T07:14:49.808Z,10.92
2017-02-16T07:15:49.759Z,10.72
2017-02-16T07:16:49.681Z,10.72
2017-02-16T07:17:49.623Z,10.82
2017-02-16T07:18:49.556Z,10.82
2017-02-16T07:19:49.491Z,10.92
2017-02-16T07:20:49.435Z,10.92
2017-02-16T07:21:49.380Z,10.82
2017-02-16T07:22:49.313Z,10.82
2017-02-16T07:23:49.242Z,10.82
2017-02-16T07:24:49.178Z,10.82
2017-02-16T07:25:49.118Z,10.72
2017-02-16T07:26:49.060Z,11.02
2017-02-16T07:27:49.004Z,11.02
2017-02-16T07:28:48.927Z,11.02
2017-02-16T07:29:48.864Z,11.21
2017-02-16T07:30:48.800Z,10.92
2017-02-16T07:31:48.739Z,11.02
2017-02-16T07:32:48.676Z,11.21
2017-02-16T07:33:48.629Z,11.02
2017-02-16T07:34:48.563Z,11.02
2017-02-16T07:35:48.497Z,10.72
2017-02-16T07:36:48.426Z,10.82
2017-02-16T07:37:47.977Z,11.11
2017-02-16T07:38:48.297Z,10.92
2017-02-16T07:39:48.238Z,11.11
2017-02-16T07:40:48.174Z,11.11
2017-02-16T07:41:48.108Z,11.21
2017-02-16T07:42:48.058Z,11.21
2017-02-16T07:43:47.983Z,11.02
2017-02-16T07:44:47.931Z,11.11
2017-02-16T07:45:47.861Z,11.11
2017-02-16T07:46:47.794Z,11.11
2017-02-16T07:47:47.736Z,11.11
2017-02-16T07:48:47.679Z,11.21
2017-02-16T07:49:47.606Z,11.02
2017-02-16T07:50:47.541Z,10.82
2017-02-16T07:51:47.479Z,11.02
2017-02-16T07:52:47.417Z,11.21
2017-02-16T07:53:47.353Z,11.21
2017-02-16T07:54:47.306Z,11.02
2017-02-16T07:55:47.242Z,11.02
2017-02-16T07:56:47.165Z,11.02
2017-02-16T07:57:47.111Z,11.11
2017-02-16T07:58:47.038Z,11.11
2017-02-16T07:59:46.974Z,11.11
2017-02-16T08:00:46.923Z,11.11
2017-02-16T08:01:46.848Z,11.02
2017-02-16T08:02:46.787Z,11.02
2017-02-16T08:03:46.724Z,11.11
2017-02-16T08:04:46.660Z,11.11
2017-02-16T08:05:46.596Z,10.92
2017-02-16T08:06:46.537Z,10.92
2017-02-16T08:07:46.481Z,10.92
2017-02-16T08:08:46.407Z,11.02
2017-02-16T08:09:46.345Z,11.02
2017-02-16T08:10:46.282Z,11.11
2017-02-16T08:11:46.227Z,11.11
2017-02-16T08:12:46.156Z,11.11
2017-02-16T08:13:46.093Z,10.92
2017-02-16T08:14:46.287Z,10.92
2017-02-16T08:15:45.964Z,10.82
2017-02-16T08:16:45.914Z,11.11
2017-02-16T08:17:45.839Z,11.02
2017-02-16T08:18:45.393Z,10.82
2017-02-16T08:19:45.714Z,10.82
2017-02-16T08:20:45.931Z,10.82
2017-02-16T08:21:45.550Z,10.82
2017-02-16T08:22:45.528Z,10.92
2017-02-16T08:23:45.460Z,11.11
2017-02-16T08:24:45.403Z,10.82
2017-02-16T08:25:45.635Z,10.92
2017-02-16T08:26:45.346Z,10.82
2017-02-16T08:27:45.379Z,11.11
2017-02-16T08:28:46.057Z,11.11
2017-02-16T08:29:45.095Z,11.21
2017-02-16T08:30:45.274Z,10.82
2017-02-16T08:31:44.955Z,10.82
2017-02-16T08:32:44.905Z,10.82
2017-02-16T08:33:44.833Z,11.02
2017-02-16T08:34:44.385Z,10.92
2017-02-16T08:35:44.709Z,10.82
2017-02-16T08:36:44.643Z,10.72
2017-02-16T08:37:44.580Z,11.4
2017-02-16T08:38:44.523Z,10.82
2017-02-16T08:39:44.454Z,10.82
2017-02-16T08:40:44.390Z,11.4
2017-02-16T08:41:44.329Z,10.82
2017-02-16T08:42:43.891Z,10.82
2017-02-16T08:43:44.202Z,10.72
2017-02-16T08:44:44.141Z,10.82
2017-02-16T08:45:44.074Z,10.72
2017-02-16T08:46:44.074Z,10.92
2017-02-16T08:47:43.948Z,11.11
2017-02-16T08:48:44.000Z,10.73
2017-02-16T08:49:43.891Z,11.02
2017-02-16T08:50:43.847Z,10.93
2017-02-16T08:51:43.786Z,11.02
2017-02-16T08:52:43.775Z,11.12
2017-02-16T08:53:43.667Z,11.02
2017-02-16T08:54:43.515Z,11.02
2017-02-16T08:55:43.896Z,11.02
2017-02-16T08:56:43.536Z,11.12
2017-02-16T08:57:43.026Z,11.12
2017-02-16T08:58:43.276Z,11.02
2017-02-16T08:59:43.279Z,11.6
2017-02-16T09:00:43.388Z,12.28
2017-02-16T09:01:43.098Z,12.28
2017-02-16T09:02:43.050Z,12.56
2017-02-16T09:03:43.096Z,12.66
2017-02-16T09:04:43.002Z,12.56
2017-02-16T09:05:42.821Z,12.46
2017-02-16T09:06:42.445Z,13.04
2017-02-16T09:07:42.695Z,13.14
2017-02-16T09:08:42.643Z,13.63
2017-02-16T09:09:42.188Z,13.73
2017-02-16T09:10:42.508Z,14.22
2017-02-16T09:11:42.462Z,14.31
2017-02-16T09:12:42.382Z,14.31
2017-02-16T09:13:42.324Z,14.7
2017-02-16T09:14:42.258Z,14.6
2017-02-16T09:15:42.503Z,14.6
2017-02-16T09:16:42.136Z,15.08
2017-02-16T09:17:42.067Z,15.28
2017-02-16T09:18:42.011Z,15.28
2017-02-16T09:19:42.014Z,15.47
2017-02-16T09:20:41.883Z,15.66
2017-02-16T09:21:41.819Z,15.86
2017-02-16T09:22:41.766Z,16.25
2017-02-16T09:23:41.692Z,16.44
2017-02-16T09:24:41.636Z,16.25
2017-02-16T09:25:41.568Z,16.63
2017-02-16T09:26:41.507Z,16.93
2017-02-16T09:27:41.446Z,16.93
2017-02-16T09:28:41.533Z,17.02
2017-02-16T09:29:41.329Z,17.02
2017-02-16T09:30:41.576Z,17.32
2017-02-16T09:31:40.822Z,17.41
2017-02-16T09:32:41.139Z,17.22
2017-02-16T09:33:41.078Z,17.02
2017-02-16T09:34:41.012Z,17.02
2017-02-16T09:35:41.227Z,17.6
2017-02-16T09:36:40.882Z,17.6
2017-02-16T09:37:40.833Z,17.12
2017-02-16T09:38:40.835Z,17.7
2017-02-16T09:39:40.706Z,17.51
2017-02-16T09:40:40.652Z,17.6
2017-02-16T09:41:40.572Z,17.22
2017-02-16T09:42:40.759Z,17.7
2017-02-16T09:43:40.533Z,17.6
2017-02-16T09:44:40.390Z,17.99
2017-02-16T09:45:40.324Z,18.28
2017-02-16T09:46:40.260Z,18.19
2017-02-16T09:47:40.199Z,18.57
2017-02-16T09:48:40.137Z,18.38
2017-02-16T09:49:40.076Z,18.48
2017-02-16T09:50:40.012Z,18.28
2017-02-16T09:51:39.959Z,18.19
2017-02-16T09:52:39.886Z,18.28
2017-02-16T09:53:39.824Z,18.67
2017-02-16T09:54:39.767Z,18.77
2017-02-16T09:55:39.704Z,19.15
2017-02-16T09:56:39.641Z,18.96
2017-02-16T09:57:39.578Z,19.15
2017-02-16T09:58:39.518Z,19.06
2017-02-16T09:59:39.456Z,19.15
2017-02-16T10:00:39.640Z,18.96
2017-02-16T10:01:39.329Z,19.06
2017-02-16T10:02:39.273Z,18.87
2017-02-16T10:03:39.210Z,19.06
2017-02-16T10:04:39.145Z,19.06
2017-02-16T10:05:39.394Z,19.15
2017-02-16T10:06:39.061Z,19.15
2017-02-16T10:07:39.214Z,18.96
2017-02-16T10:08:38.917Z,19.25
2017-02-16T10:09:38.859Z,19.35
2017-02-16T10:10:38.771Z,19.54
2017-02-16T10:11:38.706Z,19.25
2017-02-16T10:12:38.646Z,19.45
2017-02-16T10:13:38.591Z,19.35
2017-02-16T10:14:38.565Z,19.45
2017-02-16T10:15:38.462Z,19.73
2017-02-16T10:16:38.459Z,19.73
2017-02-16T10:17:38.339Z,19.64
2017-02-16T10:18:38.275Z,19.94
2017-02-16T10:19:38.213Z,19.64
2017-02-16T10:20:38.151Z,19.83
2017-02-16T10:21:38.103Z,19.93
2017-02-16T10:22:38.028Z,20.03
2017-02-16T10:23:37.963Z,20.21
2017-02-16T10:24:37.903Z,20.21
2017-02-16T10:25:37.846Z,20.12
2017-02-16T10:26:37.778Z,20.31
2017-02-16T10:27:37.725Z,20.31
2017-02-16T10:28:37.665Z,20.21
2017-02-16T10:29:37.604Z,20.12
2017-02-16T10:30:37.780Z,20.51
2017-02-16T10:31:37.470Z,20.31
2017-02-16T10:32:37.428Z,20.41
2017-02-16T10:33:37.597Z,20.12
2017-02-16T10:34:37.284Z,20.21
2017-02-16T10:35:37.223Z,20.12
2017-02-16T10:36:37.170Z,20.41
2017-02-16T10:37:37.107Z,20.51
2017-02-16T10:38:37.389Z,20.51
2017-02-16T10:39:36.602Z,20.41
2017-02-16T10:40:36.922Z,20.51
2017-02-16T10:41:36.859Z,20.31
2017-02-16T10:42:36.788Z,20.32
2017-02-16T10:43:36.730Z,20.13
2017-02-16T10:44:36.663Z,20.51
2017-02-16T10:45:36.856Z,20.41
2017-02-16T10:46:36.548Z,20.32
2017-02-16T10:47:36.480Z,20.62
2017-02-16T10:48:36.431Z,20.52
2017-02-16T10:49:36.357Z,20.52
2017-02-16T10:50:36.293Z,20.42
2017-02-16T10:51:36.237Z,20.81
2017-02-16T10:52:36.182Z,20.42
2017-02-16T10:53:36.106Z,20.62
2017-02-16T10:54:36.047Z,20.52
2017-02-16T10:55:35.984Z,20.81
2017-02-16T10:56:35.924Z,20.9
2017-02-16T10:57:35.873Z,20.71
2017-02-16T10:58:35.802Z,20.71
2017-02-16T10:59:35.734Z,20.9
2017-02-16T11:00:35.676Z,20.9
2017-02-16T11:01:35.616Z,21
2017-02-16T11:02:35.554Z,20.71
2017-02-16T11:03:35.489Z,20.71
2017-02-16T11:04:35.429Z,21.2
2017-02-16T11:05:34.983Z,20.81
2017-02-16T11:06:35.307Z,21.3
2017-02-16T11:07:35.264Z,21.39
2017-02-16T11:08:35.186Z,19.55
2017-02-16T11:09:35.133Z,17.71
2017-02-16T11:10:35.059Z,16.93
2017-02-16T11:11:34.995Z,16.16
2017-02-16T11:12:34.938Z,15.96
2017-02-16T11:13:34.870Z,16.05
2017-02-16T11:14:34.810Z,15.86
2017-02-16T11:15:35.048Z,15.86
2017-02-16T11:16:34.697Z,16.14
2017-02-16T11:17:34.622Z,15.95
2017-02-16T11:18:34.570Z,16.14
2017-02-16T11:19:34.514Z,16.14
2017-02-16T11:20:34.536Z,16.14
2017-02-16T11:21:34.383Z,16.82
2017-02-16T11:22:34.310Z,16.83
2017-02-16T11:23:33.863Z,16.74
2017-02-16T11:24:33.801Z,16.93
2017-02-16T11:25:34.132Z,17.02
2017-02-16T11:26:34.062Z,17.02
2017-02-16T11:27:34.004Z,17.02
2017-02-16T11:28:33.939Z,17.5
2017-02-16T11:29:34.036Z,17.41
2017-02-16T11:30:33.819Z,17.41
2017-02-16T11:31:33.750Z,17.32
2017-02-16T11:32:33.939Z,17.22
2017-02-16T11:33:33.629Z,17.32
2017-02-16T11:34:33.564Z,17.12
2017-02-16T11:35:33.504Z,17.12
2017-02-16T11:36:33.437Z,17.11
2017-02-16T11:37:33.383Z,17.02
2017-02-16T11:38:33.315Z,17.02
2017-02-16T11:39:33.251Z,17.12
2017-02-16T11:40:33.189Z,17.11
2017-02-16T11:41:33.126Z,17.02
2017-02-16T11:42:33.064Z,16.92
2017-02-16T11:43:33.004Z,17.12
2017-02-16T11:44:32.968Z,17.12
2017-02-16T11:45:33.128Z,17.12
2017-02-16T11:46:32.820Z,17.12
2017-02-16T11:47:32.761Z,17.51
2017-02-16T11:48:32.691Z,16.93
2017-02-16T11:49:32.629Z,17.02
2017-02-16T11:50:32.979Z,17.6
2017-02-16T11:51:32.526Z,17.02
2017-02-16T11:52:32.452Z,17.6
2017-02-16T11:53:32.379Z,17.6
2017-02-16T11:54:32.318Z,17.41
2017-02-16T11:55:32.967Z,17.5
2017-02-16T11:56:32.199Z,17.8
2017-02-16T11:57:32.139Z,17.7
2017-02-16T11:58:32.416Z,17.6
2017-02-16T11:59:32.008Z,17.31
2017-02-16T12:00:31.959Z,17.32
2017-02-16T12:01:31.887Z,17.32
2017-02-16T12:02:31.820Z,17.32
2017-02-16T12:03:31.768Z,17.6
2017-02-16T12:04:31.697Z,17.12
2017-02-16T12:05:31.984Z,17.22
2017-02-16T12:06:31.587Z,17.5
2017-02-16T12:07:31.528Z,17.4
2017-02-16T12:08:31.447Z,17.6
2017-02-16T12:09:31.384Z,17.8
2017-02-16T12:10:31.320Z,17.6
2017-02-16T12:11:31.259Z,17.51
2017-02-16T12:12:31.197Z,17.6
2017-02-16T12:13:31.142Z,17.7
2017-02-16T12:14:31.072Z,17.69
2017-02-16T12:15:31.008Z,17.8
2017-02-16T12:16:30.946Z,17.6
2017-02-16T12:17:30.886Z,17.99
2017-02-16T12:18:30.823Z,18.09
2017-02-16T12:19:30.758Z,17.99
2017-02-16T12:20:30.946Z,18.08
2017-02-16T12:21:30.640Z,17.99
2017-02-16T12:22:30.587Z,18.19
2017-02-16T12:23:30.524Z,17.99
2017-02-16T12:24:30.800Z,18.09
2017-02-16T12:25:30.391Z,18.09
2017-02-16T12:26:30.336Z,18.09
2017-02-16T12:27:30.266Z,18.19
2017-02-16T12:28:30.198Z,18.19
2017-02-16T12:29:30.138Z,18.19
2017-02-16T12:30:30.395Z,18.18
2017-02-16T12:31:30.031Z,18.19
2017-02-16T12:32:30.198Z,18.57
2017-02-16T12:33:29.896Z,18.47
2017-02-16T12:34:29.835Z,18.57
2017-02-16T12:35:29.779Z,18.66
2017-02-16T12:36:29.703Z,18.38
2017-02-16T12:37:29.648Z,18.47
2017-02-16T12:38:29.588Z,18.66
2017-02-16T12:39:29.518Z,18.57
2017-02-16T12:40:29.455Z,18.37
2017-02-16T12:41:29.388Z,18.28
2017-02-16T12:42:29.327Z,18.19
2017-02-16T12:43:29.293Z,18.19
2017-02-16T12:44:29.200Z,18.28
2017-02-16T12:45:29.456Z,18.09
2017-02-16T12:46:29.079Z,18.27
2017-02-16T12:47:29.021Z,18.47
2017-02-16T12:48:28.952Z,18.67
2017-02-16T12:49:28.889Z,18.77
2017-02-16T12:50:28.838Z,18.66
2017-02-16T12:51:28.774Z,18.76
2017-02-16T12:52:28.703Z,18.57
2017-02-16T12:53:28.902Z,18.76
2017-02-16T12:54:28.587Z,18.87
2017-02-16T12:55:28.971Z,18.87